Yankee — WDF4108 — position and weather

sailwx.info

Track history (hours):
 
Tides and Currents Weather Stations Pressure Air Temp Water Temp Dewpoint Dewpoint Depression Visibility Wind Speed Wind Dir Waves Ship Positions

Yankee

Owner: United New York & New Jersey Sandy Hook Pilots Association, Staten Island, NY. More information available from US FCC via Universal Licensing System and Coast Guard Vessel Documentation Center.

Last reported at 2017-Sep-19 15:34 UTC. Time now 2017-Sep-19 20:24 UTC.
Position N 40°37' W 074°04'.

Length 17 m; draft 2.6 m.

Type: Pilot. MMSI: 367448070.

Date/timePositionNaut miles runAvg speedWind from/ knotsBaromVisibWave heightAir tempDewpointWater temp
2017-Sep-19 15:34N 40°37' W 074°04'120.8
2017-Sep-19 15:30N 40°36' W 074°03'1 2.6
2017-Sep-19 14:57N 40°37' W 074°04'0 0.0
2017-Sep-19 09:55N 40°37' W 074°04'1 0.2
2017-Sep-19 03:58N 40°36' W 074°03'6 6.1
2017-Sep-19 03:03N 40°32' W 073°59'223.8
2017-Sep-19 02:59N 40°33' W 074°00'4 0.4
2017-Sep-18 16:53N 40°37' W 074°03'5 5.3
2017-Sep-18 15:57N 40°32' W 074°02'5 2.3
2017-Sep-18 13:34N 40°37' W 074°04'115.4
2017-Sep-18 13:30N 40°36' W 074°03'5 4.9
2017-Sep-18 12:24N 40°32' W 073°59'616.2
2017-Sep-18 12:00N 40°37' W 074°04'0 0.0
2017-Sep-18 03:16N 40°37' W 074°04'415.0
2017-Sep-18 03:01N 40°41' W 074°04'11 8.0
2017-Sep-18 01:37N 40°31' W 073°57'323.5
2017-Sep-18 01:30N 40°33' W 073°60'5 0.2
2017-Sep-17 03:53N 40°37' W 074°03'921.3
2017-Sep-17 03:27N 40°30' W 073°55'3 4.7
2017-Sep-17 02:43N 40°32' W 073°59'523.7
2017-Sep-17 02:31N 40°36' W 074°03'1 0.2
2017-Sep-16 22:23N 40°37' W 074°03'6 6.3
2017-Sep-16 21:23N 40°31' W 073°59'7 3.7
2017-Sep-16 19:28N 40°37' W 074°04'9 7.8
2017-Sep-16 18:22N 40°30' W 073°57'821.7
2017-Sep-16 18:00N 40°36' W 074°03'1 0.2
2017-Sep-16 14:18N 40°37' W 074°04'1213.5
2017-Sep-16 13:23N 40°29' W 073°52'923.8
2017-Sep-16 13:00N 40°34' W 074°02'3 2.5
2017-Sep-16 11:42N 40°37' W 074°04'312.6
2017-Sep-16 11:30N 40°35' W 074°02'0 0.3
2017-Sep-16 11:00N 40°35' W 074°02'5 4.4
2017-Sep-16 09:56N 40°32' W 073°58'6 1.2
2017-Sep-16 04:27N 40°36' W 074°03'7 7.2
2017-Sep-16 03:26N 40°31' W 073°57'8 1.7
2017-Sep-15 23:03N 40°37' W 074°03'122.4
2017-Sep-15 23:00N 40°36' W 074°03'6 5.8
2017-Sep-15 21:55N 40°31' W 073°58'8 2.0
2017-Sep-15 17:56N 40°37' W 074°04'13 4.3
2017-Sep-15 14:58N 40°28' W 073°52'1123.8
2017-Sep-15 14:30N 40°36' W 074°03'2 1.4
2017-Sep-15 13:23N 40°37' W 074°04'7 5.4
2017-Sep-15 12:10N 40°32' W 073°59'425.1
2017-Sep-15 12:01N 40°35' W 074°02'3 2.5
2017-Sep-15 10:52N 40°37' W 074°04'8 6.9
2017-Sep-15 09:40N 40°31' W 073°57'423.6
2017-Sep-15 09:30N 40°34' W 074°01'4 0.1
2017-Sep-14 03:36N 40°37' W 074°03'222.3
2017-Sep-14 03:29N 40°35' W 074°02'3 3.2
2017-Sep-14 02:38N 40°33' W 073°59'323.4
2017-Sep-14 02:29N 40°35' W 074°02'1 0.1
2017-Sep-13 17:43N 40°36' W 074°03'6 4.6
2017-Sep-13 16:28N 40°31' W 073°59'6 2.7
2017-Sep-13 14:14N 40°36' W 074°03'522.9
2017-Sep-13 14:01N 40°32' W 073°59'816.7
2017-Sep-13 13:30N 40°27' W 073°50'1122.8
2017-Sep-13 13:00N 40°34' W 074°02'2 0.6
2017-Sep-13 09:25N 40°36' W 074°03'921.6
2017-Sep-13 09:00N 40°30' W 073°55'1 1.4
2017-Sep-13 08:29N 40°30' W 073°54'1119.6
2017-Sep-13 07:57N 40°37' W 074°04'0 0.0
2017-Sep-13 03:49N 40°37' W 074°04'6 5.7
2017-Sep-13 02:46N 40°32' W 073°59'622.2
2017-Sep-13 02:30N 40°37' W 074°03'0 0.1
2017-Sep-12 23:10N 40°37' W 074°03'421.4
2017-Sep-12 22:59N 40°33' W 074°00'3 2.7
2017-Sep-12 21:44N 40°31' W 073°57'524.4
2017-Sep-12 21:30N 40°35' W 074°02'2 2.0
2017-Sep-12 20:17N 40°37' W 074°04'414.4
2017-Sep-12 20:00N 40°41' W 074°04'4 0.5
2017-Sep-12 12:26N 40°37' W 074°04'818.2
2017-Sep-12 12:00N 40°45' W 074°01'2 3.4
2017-Sep-12 11:31N 40°43' W 074°01'6 1.1
2017-Sep-12 05:49N 40°37' W 074°04'1010.5
2017-Sep-12 04:53N 40°30' W 073°55'922.9
2017-Sep-12 04:30N 40°36' W 074°03'1 0.3
2017-Sep-12 00:54N 40°37' W 074°04'0 0.2
2017-Sep-12 00:15N 40°37' W 074°04'521.5
2017-Sep-12 00:00N 40°32' W 074°00'4 8.0
2017-Sep-11 23:30N 40°36' W 074°03'2 2.9
2017-Sep-11 22:59N 40°37' W 074°04'1214.2
2017-Sep-11 22:10N 40°29' W 073°53'624.4
2017-Sep-11 21:55N 40°32' W 073°59'6 2.3
2017-Sep-11 19:18N 40°37' W 074°04'619.1
2017-Sep-11 19:00N 40°32' W 073°60'3 1.4
2017-Sep-11 16:54N 40°30' W 073°57'819.2
2017-Sep-11 16:30N 40°36' W 074°03'1 1.0
2017-Sep-11 15:18N 40°37' W 074°04'1 1.8
2017-Sep-11 15:00N 40°37' W 074°03'1 0.2
2017-Sep-11 12:19N 40°37' W 074°04'620.3
2017-Sep-11 12:00N 40°43' W 074°01'2 3.3
2017-Sep-11 11:30N 40°45' W 074°01'814.9
2017-Sep-11 10:59N 40°37' W 074°04'0 0.9
2017-Sep-11 10:30N 40°37' W 074°03'4 3.6
2017-Sep-11 09:19N 40°33' W 074°01'5 5.3
2017-Sep-11 08:26N 40°37' W 074°03'8 7.7
2017-Sep-11 07:22N 40°31' W 073°57'822.0
2017-Sep-11 07:00N 40°37' W 074°04'1 0.1
2017-Sep-11 01:43N 40°37' W 074°03'523.5
2017-Sep-11 01:31N 40°32' W 073°60'1 2.6
2017-Sep-11 00:57N 40°32' W 073°58'921.7
2017-Sep-11 00:30N 40°40' W 074°04'714.1
2017-Sep-11 00:00N 40°46' W 073°60'816.4
2017-Sep-10 23:30N 40°39' W 074°03'2 0.1
2017-Sep-10 12:25N 40°37' W 074°04'819.2
2017-Sep-10 12:00N 40°45' W 074°01'2 4.2
2017-Sep-10 11:30N 40°43' W 074°02'611.9
2017-Sep-10 11:00N 40°37' W 074°04'6 4.8
2017-Sep-10 09:39N 40°32' W 073°59'424.9
2017-Sep-10 09:30N 40°35' W 074°01'2 0.4
2017-Sep-10 03:39N 40°37' W 074°03'423.7
2017-Sep-10 03:29N 40°33' W 074°01'2 1.5
2017-Sep-10 02:28N 40°32' W 073°59'6 3.2
2017-Sep-10 00:32N 40°37' W 074°03'122.5
2017-Sep-10 00:31N 40°38' W 074°03'916.9
2017-Sep-10 00:00N 40°46' W 073°60'3 5.2
2017-Sep-09 23:30N 40°44' W 074°01'714.4
2017-Sep-09 23:00N 40°37' W 074°04'0 0.0
2017-Sep-09 19:06N 40°37' W 074°04'1 7.1
2017-Sep-09 19:00N 40°37' W 074°03'7 6.5
2017-Sep-09 17:57N 40°31' W 073°58'  
Track history (hours):
 
Tides and Currents Weather Stations Pressure Air Temp Water Temp Dewpoint Dewpoint Depression Visibility Wind Speed Wind Dir Waves Ship Positions

Yankee

Owner: United New York & New Jersey Sandy Hook Pilots Association, Staten Island, NY. More information available from US FCC via Universal Licensing System and Coast Guard Vessel Documentation Center.

Last reported at 2017-Sep-19 15:34 UTC. Time now 2017-Sep-19 20:24 UTC.
Position N 40°37' W 074°04'.

Length 17 m; draft 2.6 m.

Type: Pilot. MMSI: 367448070.

Date/timePositionNaut miles runAvg speedWind from/ knotsBaromVisibWave heightAir tempDewpointWater temp
2017-Sep-19 15:34N 40°37' W 074°04'120.8
2017-Sep-19 15:30N 40°36' W 074°03'1 2.6
2017-Sep-19 14:57N 40°37' W 074°04'0 0.0
2017-Sep-19 09:55N 40°37' W 074°04'1 0.2
2017-Sep-19 03:58N 40°36' W 074°03'6 6.1
2017-Sep-19 03:03N 40°32' W 073°59'223.8
2017-Sep-19 02:59N 40°33' W 074°00'4 0.4
2017-Sep-18 16:53N 40°37' W 074°03'5 5.3
2017-Sep-18 15:57N 40°32' W 074°02'5 2.3
2017-Sep-18 13:34N 40°37' W 074°04'115.4
2017-Sep-18 13:30N 40°36' W 074°03'5 4.9
2017-Sep-18 12:24N 40°32' W 073°59'616.2
2017-Sep-18 12:00N 40°37' W 074°04'0 0.0
2017-Sep-18 03:16N 40°37' W 074°04'415.0
2017-Sep-18 03:01N 40°41' W 074°04'11 8.0
2017-Sep-18 01:37N 40°31' W 073°57'323.5
2017-Sep-18 01:30N 40°33' W 073°60'5 0.2
2017-Sep-17 03:53N 40°37' W 074°03'921.3
2017-Sep-17 03:27N 40°30' W 073°55'3 4.7
2017-Sep-17 02:43N 40°32' W 073°59'523.7
2017-Sep-17 02:31N 40°36' W 074°03'1 0.2
2017-Sep-16 22:23N 40°37' W 074°03'6 6.3
2017-Sep-16 21:23N 40°31' W 073°59'7 3.7
2017-Sep-16 19:28N 40°37' W 074°04'9 7.8
2017-Sep-16 18:22N 40°30' W 073°57'821.7
2017-Sep-16 18:00N 40°36' W 074°03'1 0.2
2017-Sep-16 14:18N 40°37' W 074°04'1213.5
2017-Sep-16 13:23N 40°29' W 073°52'923.8
2017-Sep-16 13:00N 40°34' W 074°02'3 2.5
2017-Sep-16 11:42N 40°37' W 074°04'312.6
2017-Sep-16 11:30N 40°35' W 074°02'0 0.3
2017-Sep-16 11:00N 40°35' W 074°02'5 4.4
2017-Sep-16 09:56N 40°32' W 073°58'6 1.2
2017-Sep-16 04:27N 40°36' W 074°03'7 7.2
2017-Sep-16 03:26N 40°31' W 073°57'8 1.7
2017-Sep-15 23:03N 40°37' W 074°03'122.4
2017-Sep-15 23:00N 40°36' W 074°03'6 5.8
2017-Sep-15 21:55N 40°31' W 073°58'8 2.0
2017-Sep-15 17:56N 40°37' W 074°04'13 4.3
2017-Sep-15 14:58N 40°28' W 073°52'1123.8
2017-Sep-15 14:30N 40°36' W 074°03'2 1.4
2017-Sep-15 13:23N 40°37' W 074°04'7 5.4
2017-Sep-15 12:10N 40°32' W 073°59'425.1
2017-Sep-15 12:01N 40°35' W 074°02'3 2.5
2017-Sep-15 10:52N 40°37' W 074°04'8 6.9
2017-Sep-15 09:40N 40°31' W 073°57'423.6
2017-Sep-15 09:30N 40°34' W 074°01'4 0.1
2017-Sep-14 03:36N 40°37' W 074°03'222.3
2017-Sep-14 03:29N 40°35' W 074°02'3 3.2
2017-Sep-14 02:38N 40°33' W 073°59'323.4
2017-Sep-14 02:29N 40°35' W 074°02'1 0.1
2017-Sep-13 17:43N 40°36' W 074°03'6 4.6
2017-Sep-13 16:28N 40°31' W 073°59'6 2.7
2017-Sep-13 14:14N 40°36' W 074°03'522.9
2017-Sep-13 14:01N 40°32' W 073°59'816.7
2017-Sep-13 13:30N 40°27' W 073°50'1122.8
2017-Sep-13 13:00N 40°34' W 074°02'2 0.6
2017-Sep-13 09:25N 40°36' W 074°03'921.6
2017-Sep-13 09:00N 40°30' W 073°55'1 1.4
2017-Sep-13 08:29N 40°30' W 073°54'1119.6
2017-Sep-13 07:57N 40°37' W 074°04'0 0.0
2017-Sep-13 03:49N 40°37' W 074°04'6 5.7
2017-Sep-13 02:46N 40°32' W 073°59'622.2
2017-Sep-13 02:30N 40°37' W 074°03'0 0.1
2017-Sep-12 23:10N 40°37' W 074°03'421.4
2017-Sep-12 22:59N 40°33' W 074°00'3 2.7
2017-Sep-12 21:44N 40°31' W 073°57'524.4
2017-Sep-12 21:30N 40°35' W 074°02'2 2.0
2017-Sep-12 20:17N 40°37' W 074°04'414.4
2017-Sep-12 20:00N 40°41' W 074°04'4 0.5
2017-Sep-12 12:26N 40°37' W 074°04'818.2
2017-Sep-12 12:00N 40°45' W 074°01'2 3.4
2017-Sep-12 11:31N 40°43' W 074°01'6 1.1
2017-Sep-12 05:49N 40°37' W 074°04'1010.5
2017-Sep-12 04:53N 40°30' W 073°55'922.9
2017-Sep-12 04:30N 40°36' W 074°03'1 0.3
2017-Sep-12 00:54N 40°37' W 074°04'0 0.2
2017-Sep-12 00:15N 40°37' W 074°04'521.5
2017-Sep-12 00:00N 40°32' W 074°00'4 8.0
2017-Sep-11 23:30N 40°36' W 074°03'2 2.9
2017-Sep-11 22:59N 40°37' W 074°04'1214.2
2017-Sep-11 22:10N 40°29' W 073°53'624.4
2017-Sep-11 21:55N 40°32' W 073°59'6 2.3
2017-Sep-11 19:18N 40°37' W 074°04'619.1
2017-Sep-11 19:00N 40°32' W 073°60'3 1.4
2017-Sep-11 16:54N 40°30' W 073°57'819.2
2017-Sep-11 16:30N 40°36' W 074°03'1 1.0
2017-Sep-11 15:18N 40°37' W 074°04'1 1.8
2017-Sep-11 15:00N 40°37' W 074°03'1 0.2
2017-Sep-11 12:19N 40°37' W 074°04'620.3
2017-Sep-11 12:00N 40°43' W 074°01'2 3.3
2017-Sep-11 11:30N 40°45' W 074°01'814.9
2017-Sep-11 10:59N 40°37' W 074°04'0 0.9
2017-Sep-11 10:30N 40°37' W 074°03'4 3.6
2017-Sep-11 09:19N 40°33' W 074°01'5 5.3
2017-Sep-11 08:26N 40°37' W 074°03'8 7.7
2017-Sep-11 07:22N 40°31' W 073°57'822.0
2017-Sep-11 07:00N 40°37' W 074°04'1 0.1
2017-Sep-11 01:43N 40°37' W 074°03'523.5
2017-Sep-11 01:31N 40°32' W 073°60'1 2.6
2017-Sep-11 00:57N 40°32' W 073°58'921.7
2017-Sep-11 00:30N 40°40' W 074°04'714.1
2017-Sep-11 00:00N 40°46' W 073°60'816.4
2017-Sep-10 23:30N 40°39' W 074°03'2 0.1
2017-Sep-10 12:25N 40°37' W 074°04'819.2
2017-Sep-10 12:00N 40°45' W 074°01'2 4.2
2017-Sep-10 11:30N 40°43' W 074°02'611.9
2017-Sep-10 11:00N 40°37' W 074°04'6 4.8
2017-Sep-10 09:39N 40°32' W 073°59'424.9
2017-Sep-10 09:30N 40°35' W 074°01'2 0.4
2017-Sep-10 03:39N 40°37' W 074°03'423.7
2017-Sep-10 03:29N 40°33' W 074°01'2 1.5
2017-Sep-10 02:28N 40°32' W 073°59'6 3.2
2017-Sep-10 00:32N 40°37' W 074°03'122.5
2017-Sep-10 00:31N 40°38' W 074°03'916.9
2017-Sep-10 00:00N 40°46' W 073°60'3 5.2
2017-Sep-09 23:30N 40°44' W 074°01'714.4
2017-Sep-09 23:00N 40°37' W 074°04'0 0.0
2017-Sep-09 19:06N 40°37' W 074°04'1 7.1
2017-Sep-09 19:00N 40°37' W 074°03'7 6.5
2017-Sep-09 17:57N 40°31' W 073°58'  

Dump ship's entire track history